createdAt,value
2018-05-31T00:00:45.782Z,24.89
2018-05-31T00:01:45.815Z,24.84
2018-05-31T00:02:45.840Z,24.86
2018-05-31T00:03:45.869Z,24.83
2018-05-31T00:04:45.905Z,24.86
2018-05-31T00:05:45.929Z,24.97
2018-05-31T00:06:45.962Z,24.90
2018-05-31T00:07:45.993Z,24.94
2018-05-31T00:08:46.022Z,24.93
2018-05-31T00:09:46.051Z,24.82
2018-05-31T00:10:46.079Z,24.83
2018-05-31T00:11:46.107Z,24.86
2018-05-31T00:12:46.137Z,24.84
2018-05-31T00:13:46.168Z,24.87
2018-05-31T00:14:46.203Z,24.87
2018-05-31T00:15:46.234Z,24.79
2018-05-31T00:16:46.259Z,24.75
2018-05-31T00:17:46.289Z,24.75
2018-05-31T00:18:46.319Z,24.68
2018-05-31T00:19:46.350Z,24.66
2018-05-31T00:20:46.387Z,24.60
2018-05-31T00:21:46.415Z,24.63
2018-05-31T00:22:46.437Z,24.68
2018-05-31T00:23:46.475Z,24.68
2018-05-31T00:24:46.498Z,24.68
2018-05-31T00:25:46.536Z,24.63
2018-05-31T00:26:46.560Z,24.71
2018-05-31T00:27:46.588Z,24.70
2018-05-31T00:28:46.617Z,24.74
2018-05-31T00:29:46.648Z,24.64
2018-05-31T00:30:46.729Z,24.56
2018-05-31T00:31:46.704Z,24.60
2018-05-31T00:32:46.747Z,24.60
2018-05-31T00:33:46.767Z,24.49
2018-05-31T00:34:46.797Z,24.49
2018-05-31T00:35:46.827Z,24.60
2018-05-31T00:36:46.856Z,24.45
2018-05-31T00:37:46.888Z,24.51
2018-05-31T00:38:46.919Z,24.44
2018-05-31T00:39:46.946Z,24.45
2018-05-31T00:40:46.982Z,24.42
2018-05-31T00:41:47.003Z,24.36
2018-05-31T00:42:47.037Z,24.48
2018-05-31T00:43:47.070Z,24.34
2018-05-31T00:44:47.098Z,24.34
2018-05-31T00:45:47.126Z,24.34
2018-05-31T00:46:47.157Z,24.41
2018-05-31T00:47:47.193Z,24.37
2018-05-31T00:48:47.217Z,24.37
2018-05-31T00:49:47.246Z,24.45
2018-05-31T00:50:47.276Z,24.33
2018-05-31T00:51:47.304Z,24.31
2018-05-31T00:52:47.331Z,24.45
2018-05-31T00:53:47.363Z,24.48
2018-05-31T00:54:47.396Z,24.33
2018-05-31T00:55:47.428Z,24.23
2018-05-31T00:56:47.452Z,24.36
2018-05-31T00:57:47.486Z,24.41
2018-05-31T00:58:47.515Z,24.39
2018-05-31T00:59:47.546Z,24.30
2018-05-31T01:00:47.579Z,24.42
2018-05-31T01:01:47.604Z,24.37
2018-05-31T01:02:47.640Z,24.30
2018-05-31T01:03:47.666Z,24.37
2018-05-31T01:04:47.692Z,24.34
2018-05-31T01:05:47.727Z,24.33
2018-05-31T01:06:47.753Z,24.26
2018-05-31T01:07:47.782Z,24.36
2018-05-31T01:08:47.811Z,24.21
2018-05-31T01:09:47.843Z,24.15
2018-05-31T01:10:47.870Z,24.08
2018-05-31T01:11:47.903Z,24.02
2018-05-31T01:12:47.930Z,23.99
2018-05-31T01:13:47.966Z,23.87
2018-05-31T01:14:47.987Z,23.90
2018-05-31T01:15:48.019Z,23.84
2018-05-31T01:16:48.051Z,23.89
2018-05-31T01:17:48.080Z,23.94
2018-05-31T01:18:48.116Z,23.90
2018-05-31T01:19:48.136Z,23.97
2018-05-31T01:20:48.171Z,23.87
2018-05-31T01:21:48.198Z,23.86
2018-05-31T01:22:48.226Z,23.92
2018-05-31T01:23:48.253Z,23.93
2018-05-31T01:24:48.285Z,23.93
2018-05-31T01:25:48.318Z,23.93
2018-05-31T01:26:48.344Z,23.90
2018-05-31T01:27:48.375Z,23.92
2018-05-31T01:28:48.405Z,23.86
2018-05-31T01:29:48.431Z,23.82
2018-05-31T01:30:48.465Z,23.81
2018-05-31T01:31:48.495Z,23.84
2018-05-31T01:32:48.523Z,23.86
2018-05-31T01:33:48.552Z,23.81
2018-05-31T01:34:48.581Z,23.75
2018-05-31T01:35:48.610Z,23.78
2018-05-31T01:36:48.642Z,23.84
2018-05-31T01:37:48.671Z,23.77
2018-05-31T01:38:48.705Z,23.90
2018-05-31T01:39:48.725Z,23.84
2018-05-31T01:40:48.755Z,23.77
2018-05-31T01:41:48.784Z,23.79
2018-05-31T01:42:48.823Z,23.67
2018-05-31T01:43:48.848Z,23.52
2018-05-31T01:44:48.879Z,23.45
2018-05-31T01:45:48.908Z,23.52
2018-05-31T01:46:48.942Z,23.54
2018-05-31T01:47:48.964Z,23.62
2018-05-31T01:48:48.995Z,23.62
2018-05-31T01:49:49.020Z,23.68
2018-05-31T01:50:49.054Z,23.72
2018-05-31T01:51:49.080Z,23.68
2018-05-31T01:52:49.110Z,23.68
2018-05-31T01:53:49.153Z,23.67
2018-05-31T01:54:49.170Z,23.67
2018-05-31T01:55:49.200Z,23.62
2018-05-31T01:56:49.235Z,23.52
2018-05-31T01:57:49.263Z,23.53
2018-05-31T01:58:49.284Z,23.54
2018-05-31T01:59:49.317Z,23.57
2018-05-31T02:00:49.349Z,23.35
2018-05-31T02:01:49.375Z,23.23
2018-05-31T02:02:49.403Z,23.21
2018-05-31T02:03:49.434Z,23.14
2018-05-31T02:04:49.465Z,23.15
2018-05-31T02:05:49.495Z,23.09
2018-05-31T02:06:49.530Z,23.14
2018-05-31T02:07:49.555Z,23.07
2018-05-31T02:08:49.579Z,23.09
2018-05-31T02:09:49.610Z,23.12
2018-05-31T02:10:49.640Z,23.14
2018-05-31T02:11:49.670Z,23.12
2018-05-31T02:12:49.698Z,23.18
2018-05-31T02:13:49.730Z,23.09
2018-05-31T02:14:49.759Z,23.21
2018-05-31T02:15:49.784Z,23.14
2018-05-31T02:16:49.814Z,23.16
2018-05-31T02:17:49.857Z,23.15
2018-05-31T02:18:49.877Z,23.22
2018-05-31T02:19:49.904Z,23.25
2018-05-31T02:20:49.935Z,23.23
2018-05-31T02:21:49.959Z,23.23
2018-05-31T02:22:49.997Z,23.15
2018-05-31T02:23:50.018Z,23.11
2018-05-31T02:24:50.050Z,23.11
2018-05-31T02:25:50.079Z,23.14
2018-05-31T02:26:50.108Z,23.15
2018-05-31T02:27:50.137Z,23.11
2018-05-31T02:28:50.168Z,23.07
2018-05-31T02:29:50.194Z,23.16
2018-05-31T02:30:50.227Z,23.15
2018-05-31T02:31:50.253Z,23.15
2018-05-31T02:32:50.301Z,23.04
2018-05-31T02:33:50.309Z,23.14
2018-05-31T02:34:50.344Z,23.19
2018-05-31T02:35:50.373Z,23.18
2018-05-31T02:36:50.417Z,23.15
2018-05-31T02:37:50.432Z,23.11
2018-05-31T02:38:50.462Z,23.07
2018-05-31T02:39:50.488Z,23.07
2018-05-31T02:40:50.516Z,23.01
2018-05-31T02:41:50.552Z,23.04
2018-05-31T02:42:50.576Z,23.06
2018-05-31T02:43:50.602Z,23.01
2018-05-31T02:44:50.632Z,23.00
2018-05-31T02:45:50.663Z,22.94
2018-05-31T02:46:50.695Z,22.93
2018-05-31T02:47:50.722Z,22.93
2018-05-31T02:48:50.752Z,22.86
2018-05-31T02:49:50.781Z,22.86
2018-05-31T02:50:50.811Z,23.00
2018-05-31T02:51:50.837Z,22.94
2018-05-31T02:52:50.867Z,22.86
2018-05-31T02:53:50.901Z,22.85
2018-05-31T02:54:50.930Z,22.89
2018-05-31T02:55:50.955Z,22.79
2018-05-31T02:56:50.987Z,22.70
2018-05-31T02:57:51.016Z,22.74
2018-05-31T02:58:51.048Z,22.79
2018-05-31T02:59:51.073Z,22.67
2018-05-31T03:00:51.105Z,22.74
2018-05-31T03:01:51.134Z,22.76
2018-05-31T03:02:51.160Z,22.72
2018-05-31T03:03:51.191Z,22.79
2018-05-31T03:04:51.218Z,22.74
2018-05-31T03:05:51.251Z,22.70
2018-05-31T03:06:51.277Z,22.67
2018-05-31T03:07:51.367Z,22.64
2018-05-31T03:08:51.332Z,22.61
2018-05-31T03:09:51.363Z,22.56
2018-05-31T03:10:51.402Z,22.63
2018-05-31T03:11:51.421Z,22.70
2018-05-31T03:12:51.451Z,22.67
2018-05-31T03:13:51.482Z,22.56
2018-05-31T03:14:51.507Z,22.59
2018-05-31T03:15:51.541Z,22.56
2018-05-31T03:16:51.568Z,22.54
2018-05-31T03:17:51.598Z,22.49
2018-05-31T03:18:51.631Z,22.49
2018-05-31T03:19:51.664Z,22.59
2018-05-31T03:20:51.685Z,22.56
2018-05-31T03:21:51.711Z,22.63
2018-05-31T03:22:51.744Z,22.67
2018-05-31T03:23:51.766Z,22.64
2018-05-31T03:24:51.799Z,22.66
2018-05-31T03:25:51.828Z,22.63
2018-05-31T03:26:51.862Z,22.63
2018-05-31T03:27:51.887Z,22.46
2018-05-31T03:28:51.917Z,22.41
2018-05-31T03:29:51.942Z,22.36
2018-05-31T03:30:51.976Z,22.41
2018-05-31T03:31:52.004Z,22.44
2018-05-31T03:32:52.031Z,22.42
2018-05-31T03:33:52.061Z,22.36
2018-05-31T03:34:52.091Z,22.38
2018-05-31T03:35:52.116Z,22.30
2018-05-31T03:36:52.147Z,22.46
2018-05-31T03:37:52.184Z,22.54
2018-05-31T03:38:52.206Z,22.54
2018-05-31T03:39:52.238Z,22.56
2018-05-31T03:40:52.265Z,22.52
2018-05-31T03:41:52.310Z,22.49
2018-05-31T03:42:52.320Z,22.45
2018-05-31T03:43:52.353Z,22.46
2018-05-31T03:44:52.376Z,22.44
2018-05-31T03:45:52.410Z,22.52
2018-05-31T03:46:52.446Z,22.51
2018-05-31T03:47:52.470Z,22.48
2018-05-31T03:48:52.497Z,22.48
2018-05-31T03:49:52.571Z,22.54
2018-05-31T03:50:52.549Z,22.51
2018-05-31T03:51:52.583Z,22.46
2018-05-31T03:52:52.614Z,22.44
2018-05-31T03:53:52.640Z,22.44
2018-05-31T03:54:52.665Z,22.45
2018-05-31T03:55:52.699Z,22.36
2018-05-31T03:56:52.729Z,22.49
2018-05-31T03:57:52.756Z,22.45
2018-05-31T03:58:52.786Z,22.44
2018-05-31T03:59:52.810Z,22.46
2018-05-31T04:00:52.843Z,22.46
2018-05-31T04:01:52.874Z,22.45
2018-05-31T04:02:52.900Z,22.45
2018-05-31T04:03:52.933Z,22.38
2018-05-31T04:04:52.960Z,22.36
2018-05-31T04:05:52.985Z,22.39
2018-05-31T04:06:53.015Z,22.30
2018-05-31T04:07:53.046Z,22.30
2018-05-31T04:08:53.079Z,22.30
2018-05-31T04:09:53.099Z,22.44
2018-05-31T04:10:53.135Z,22.42
2018-05-31T04:11:53.159Z,22.30
2018-05-31T04:12:53.185Z,22.39
2018-05-31T04:13:53.219Z,22.27
2018-05-31T04:14:53.249Z,22.23
2018-05-31T04:15:53.275Z,22.20
2018-05-31T04:16:53.305Z,22.20
2018-05-31T04:17:53.337Z,22.24
2018-05-31T04:18:53.359Z,22.20
2018-05-31T04:19:53.389Z,22.19
2018-05-31T04:20:53.422Z,22.24
2018-05-31T04:21:53.447Z,22.19
2018-05-31T04:22:53.482Z,22.30
2018-05-31T04:23:53.503Z,22.27
2018-05-31T04:24:53.538Z,22.15
2018-05-31T04:25:53.568Z,22.15
2018-05-31T04:26:53.594Z,22.09
2018-05-31T04:27:53.622Z,22.20
2018-05-31T04:28:53.649Z,22.26
2018-05-31T04:29:53.682Z,22.29
2018-05-31T04:30:53.709Z,22.15
2018-05-31T04:31:53.740Z,22.19
2018-05-31T04:32:53.769Z,22.17
2018-05-31T04:33:53.793Z,22.15
2018-05-31T04:34:53.827Z,22.09
2018-05-31T04:35:53.855Z,22.11
2018-05-31T04:36:53.883Z,22.14
2018-05-31T04:37:53.910Z,22.17
2018-05-31T04:38:53.938Z,22.09
2018-05-31T04:39:53.963Z,22.02
2018-05-31T04:40:53.995Z,22.05
2018-05-31T04:41:54.030Z,22.04
2018-05-31T04:42:54.057Z,22.06
2018-05-31T04:43:54.087Z,21.99
2018-05-31T04:44:54.107Z,22.11
2018-05-31T04:45:54.139Z,22.15
2018-05-31T04:46:54.174Z,22.27
2018-05-31T04:47:54.198Z,22.23
2018-05-31T04:48:54.223Z,22.27
2018-05-31T04:49:54.256Z,22.29
2018-05-31T04:50:54.285Z,22.36
2018-05-31T04:51:54.312Z,22.24
2018-05-31T04:52:54.343Z,22.30
2018-05-31T04:53:54.375Z,22.36
2018-05-31T04:54:54.409Z,22.41
2018-05-31T04:55:54.432Z,22.33
2018-05-31T04:56:54.453Z,22.31
2018-05-31T04:57:54.490Z,22.29
2018-05-31T04:58:54.520Z,22.36
2018-05-31T04:59:54.545Z,22.33
2018-05-31T05:00:54.573Z,22.36
2018-05-31T05:01:54.603Z,22.39
2018-05-31T05:02:54.638Z,22.38
2018-05-31T05:03:54.658Z,22.41
2018-05-31T05:04:54.689Z,22.35
2018-05-31T05:05:54.716Z,22.44
2018-05-31T05:06:54.746Z,22.42
2018-05-31T05:07:54.776Z,22.36
2018-05-31T05:08:54.801Z,22.30
2018-05-31T05:09:54.832Z,22.33
2018-05-31T05:10:54.863Z,22.29
2018-05-31T05:11:54.886Z,22.33
2018-05-31T05:12:54.927Z,22.41
2018-05-31T05:13:54.946Z,22.38
2018-05-31T05:14:54.977Z,22.45
2018-05-31T05:15:55.001Z,22.49
2018-05-31T05:16:55.032Z,22.49
2018-05-31T05:17:55.065Z,22.46
2018-05-31T05:18:55.095Z,22.51
2018-05-31T05:19:55.125Z,22.46
2018-05-31T05:20:55.145Z,22.57
2018-05-31T05:21:55.177Z,22.56
2018-05-31T05:22:55.211Z,22.56
2018-05-31T05:23:55.236Z,22.51
2018-05-31T05:24:55.261Z,22.57
2018-05-31T05:25:55.292Z,22.52
2018-05-31T05:26:55.329Z,22.54
2018-05-31T05:27:55.352Z,22.49
2018-05-31T05:28:55.385Z,22.44
2018-05-31T05:29:55.406Z,22.51
2018-05-31T05:30:55.446Z,22.49
2018-05-31T05:31:55.466Z,22.51
2018-05-31T05:32:55.497Z,22.59
2018-05-31T05:33:55.534Z,22.54
2018-05-31T05:34:55.551Z,22.63
2018-05-31T05:35:55.582Z,22.60
2018-05-31T05:36:55.614Z,22.54
2018-05-31T05:37:55.641Z,22.57
2018-05-31T05:38:55.671Z,22.52
2018-05-31T05:39:55.697Z,22.59
2018-05-31T05:40:55.732Z,22.66
2018-05-31T05:41:55.758Z,22.70
2018-05-31T05:42:55.790Z,22.74
2018-05-31T05:43:55.818Z,22.76
2018-05-31T05:44:55.840Z,22.64
2018-05-31T05:45:55.879Z,22.63
2018-05-31T05:46:55.915Z,22.64
2018-05-31T05:47:55.937Z,22.72
2018-05-31T05:48:55.961Z,22.72
2018-05-31T05:49:55.988Z,22.76
2018-05-31T05:50:56.023Z,22.85
2018-05-31T05:51:56.045Z,22.84
2018-05-31T05:52:56.074Z,22.86
2018-05-31T05:53:56.106Z,22.96
2018-05-31T05:54:56.144Z,22.97
2018-05-31T05:55:56.170Z,22.97
2018-05-31T05:56:56.190Z,23.01
2018-05-31T05:57:56.221Z,23.04
2018-05-31T05:58:56.253Z,23.11
2018-05-31T05:59:56.280Z,23.18
2018-05-31T06:00:56.310Z,23.03
2018-05-31T06:01:56.414Z,23.06
2018-05-31T06:02:56.365Z,23.07
2018-05-31T06:03:56.396Z,23.06
2018-05-31T06:04:56.432Z,23.07
2018-05-31T06:05:56.454Z,23.18
2018-05-31T06:06:56.487Z,23.18
2018-05-31T06:07:56.509Z,23.23
2018-05-31T06:08:56.544Z,23.23
2018-05-31T06:09:56.627Z,23.25
2018-05-31T06:10:56.600Z,23.19
2018-05-31T06:11:56.629Z,23.34
2018-05-31T06:12:56.661Z,23.35
2018-05-31T06:13:56.687Z,23.41
2018-05-31T06:14:56.726Z,23.39
2018-05-31T06:15:56.745Z,23.42
2018-05-31T06:16:56.780Z,23.44
2018-05-31T06:17:56.802Z,23.42
2018-05-31T06:18:57.624Z,23.49
2018-05-31T06:19:56.860Z,23.56
2018-05-31T06:20:56.896Z,23.59
2018-05-31T06:21:56.980Z,23.56
2018-05-31T06:22:56.951Z,23.63
2018-05-31T06:23:56.986Z,23.69
2018-05-31T06:24:57.009Z,23.62
2018-05-31T06:25:57.035Z,23.67
2018-05-31T06:26:57.071Z,23.71
2018-05-31T06:27:57.099Z,23.57
2018-05-31T06:28:57.125Z,23.71
2018-05-31T06:29:57.156Z,23.72
2018-05-31T06:30:57.184Z,23.67
2018-05-31T06:31:57.209Z,23.71
2018-05-31T06:32:57.244Z,23.77
2018-05-31T06:33:57.273Z,23.78
2018-05-31T06:34:57.300Z,23.72
2018-05-31T06:35:57.331Z,23.75
2018-05-31T06:36:57.360Z,23.75
2018-05-31T06:37:57.392Z,23.89
2018-05-31T06:38:57.418Z,23.89
2018-05-31T06:39:57.452Z,23.93
2018-05-31T06:40:57.472Z,23.89
2018-05-31T06:41:57.508Z,23.86
2018-05-31T06:42:57.560Z,23.99
2018-05-31T06:43:57.565Z,23.90
2018-05-31T06:44:57.595Z,23.89
2018-05-31T06:45:57.622Z,23.99
2018-05-31T06:46:57.653Z,24.05
2018-05-31T06:47:57.687Z,24.06
2018-05-31T06:48:57.718Z,23.99
2018-05-31T06:49:57.743Z,24.12
2018-05-31T06:50:57.768Z,24.21
2018-05-31T06:51:57.797Z,24.21
2018-05-31T06:52:57.828Z,24.21
2018-05-31T06:53:57.866Z,24.21
2018-05-31T06:54:57.890Z,24.23
2018-05-31T06:55:57.919Z,24.26
2018-05-31T06:56:57.953Z,24.24
2018-05-31T06:57:57.978Z,24.26
2018-05-31T06:58:58.012Z,24.29
2018-05-31T06:59:58.033Z,24.44
2018-05-31T07:00:58.066Z,24.41
2018-05-31T07:01:58.116Z,24.46
2018-05-31T07:02:58.122Z,24.42
2018-05-31T07:03:58.152Z,24.45
2018-05-31T07:04:58.181Z,24.42
2018-05-31T07:05:58.226Z,24.44
2018-05-31T07:06:58.252Z,24.56
2018-05-31T07:07:58.275Z,24.59
2018-05-31T07:08:58.302Z,24.59
2018-05-31T07:09:58.336Z,24.60
2018-05-31T07:10:58.371Z,24.59
2018-05-31T07:11:58.396Z,24.70
2018-05-31T07:12:58.425Z,24.66
2018-05-31T07:13:58.453Z,24.67
2018-05-31T07:14:58.477Z,24.68
2018-05-31T07:15:58.553Z,24.67
2018-05-31T07:16:58.538Z,24.63
2018-05-31T07:17:58.568Z,24.64
2018-05-31T07:18:58.597Z,24.77
2018-05-31T07:19:58.627Z,24.82
2018-05-31T07:20:58.658Z,24.77
2018-05-31T07:21:58.689Z,24.84
2018-05-31T07:22:58.718Z,24.79
2018-05-31T07:23:58.748Z,24.83
2018-05-31T07:24:58.776Z,24.80
2018-05-31T07:25:58.806Z,24.87
2018-05-31T07:26:58.844Z,24.82
2018-05-31T07:27:58.886Z,24.79
2018-05-31T07:28:58.898Z,24.84
2018-05-31T07:29:58.928Z,24.87
2018-05-31T07:30:58.956Z,24.92
2018-05-31T07:31:58.992Z,24.94
2018-05-31T07:32:59.012Z,25.02
2018-05-31T07:33:59.049Z,24.99
2018-05-31T07:34:59.079Z,25.04
2018-05-31T07:35:59.114Z,25.11
2018-05-31T07:36:59.134Z,25.08
2018-05-31T07:37:59.166Z,25.17
2018-05-31T07:38:59.191Z,25.17
2018-05-31T07:39:59.234Z,25.22
2018-05-31T07:40:59.256Z,25.26
2018-05-31T07:41:59.281Z,25.23
2018-05-31T07:42:59.334Z,25.29
2018-05-31T07:43:59.342Z,25.30
2018-05-31T07:44:59.371Z,25.26
2018-05-31T07:45:59.402Z,25.27
2018-05-31T07:46:59.434Z,25.27
2018-05-31T07:47:59.463Z,25.26
2018-05-31T07:48:59.491Z,25.35
2018-05-31T07:49:59.537Z,25.36
2018-05-31T07:50:59.550Z,25.48
2018-05-31T07:51:59.584Z,25.46
2018-05-31T07:52:59.609Z,25.49
2018-05-31T07:53:59.650Z,25.48
2018-05-31T07:54:59.670Z,25.53
2018-05-31T07:55:59.696Z,25.57
2018-05-31T07:56:59.730Z,25.51
2018-05-31T07:57:59.809Z,25.51
2018-05-31T07:58:59.789Z,25.60
2018-05-31T07:59:59.824Z,25.51
2018-05-31T08:00:59.849Z,25.49
2018-05-31T08:01:59.879Z,25.49
2018-05-31T08:02:59.923Z,25.61
2018-05-31T08:03:59.934Z,25.59
2018-05-31T08:04:59.965Z,25.75
2018-05-31T08:06:00.059Z,25.78
2018-05-31T08:07:00.031Z,25.76
2018-05-31T08:08:00.059Z,25.81
2018-05-31T08:09:00.093Z,25.78
2018-05-31T08:10:00.120Z,25.74
2018-05-31T08:11:00.155Z,25.85
2018-05-31T08:12:00.177Z,25.89
2018-05-31T08:13:00.207Z,25.90
2018-05-31T08:14:00.239Z,25.96
2018-05-31T08:15:00.270Z,26.01
2018-05-31T08:16:00.303Z,25.97
2018-05-31T08:17:00.330Z,26.06
2018-05-31T08:18:00.359Z,26.06
2018-05-31T08:19:00.389Z,26.09
2018-05-31T08:20:00.424Z,26.19
2018-05-31T08:21:00.449Z,26.13
2018-05-31T08:22:00.479Z,26.17
2018-05-31T08:23:00.509Z,26.20
2018-05-31T08:24:00.539Z,26.29
2018-05-31T08:25:00.572Z,26.32
2018-05-31T08:26:00.603Z,26.34
2018-05-31T08:27:00.633Z,26.29
2018-05-31T08:28:00.660Z,26.41
2018-05-31T08:29:00.689Z,26.42
2018-05-31T08:30:00.722Z,26.39
2018-05-31T08:31:00.753Z,26.36
2018-05-31T08:32:00.786Z,26.38
2018-05-31T08:33:00.812Z,26.38
2018-05-31T08:34:00.839Z,26.38
2018-05-31T08:35:00.868Z,26.41
2018-05-31T08:36:00.903Z,26.47
2018-05-31T08:37:00.930Z,26.53
2018-05-31T08:38:00.965Z,26.53
2018-05-31T08:39:00.991Z,26.57
2018-05-31T08:40:01.023Z,26.61
2018-05-31T08:41:01.051Z,26.59
2018-05-31T08:42:01.079Z,26.76
2018-05-31T08:43:01.115Z,26.76
2018-05-31T08:44:01.183Z,26.86
2018-05-31T08:45:01.172Z,26.83
2018-05-31T08:46:01.210Z,26.84
2018-05-31T08:47:01.242Z,26.93
2018-05-31T08:48:01.268Z,26.90
2018-05-31T08:49:01.296Z,26.86
2018-05-31T08:50:01.332Z,26.79
2018-05-31T08:51:01.436Z,26.76
2018-05-31T08:52:01.384Z,26.76
2018-05-31T08:53:01.424Z,26.75
2018-05-31T08:54:01.444Z,26.76
2018-05-31T08:55:01.484Z,26.75
2018-05-31T08:56:01.508Z,26.78
2018-05-31T08:57:01.553Z,26.86
2018-05-31T08:58:01.571Z,26.83
2018-05-31T08:59:01.598Z,26.88
2018-05-31T09:00:01.629Z,26.84
2018-05-31T09:01:01.671Z,26.94
2018-05-31T09:02:01.686Z,26.98
2018-05-31T09:03:01.721Z,26.87
2018-05-31T09:04:01.748Z,26.81
2018-05-31T09:05:01.782Z,27.02
2018-05-31T09:06:01.808Z,27.05
2018-05-31T09:07:01.842Z,27.08
2018-05-31T09:08:01.868Z,27.02
2018-05-31T09:09:01.898Z,27.06
2018-05-31T09:10:01.935Z,27.08
2018-05-31T09:11:01.972Z,27.15
2018-05-31T09:12:01.987Z,27.20
2018-05-31T09:13:02.024Z,27.18
2018-05-31T09:14:02.057Z,27.25
2018-05-31T09:15:02.095Z,27.27
2018-05-31T09:16:02.113Z,27.33
2018-05-31T09:17:02.144Z,27.30
2018-05-31T09:18:02.173Z,27.38
2018-05-31T09:19:02.202Z,27.45
2018-05-31T09:20:02.234Z,27.42
2018-05-31T09:21:02.269Z,27.49
2018-05-31T09:22:02.308Z,27.52
2018-05-31T09:23:02.324Z,27.59
2018-05-31T09:24:02.353Z,27.65
2018-05-31T09:25:02.386Z,27.65
2018-05-31T09:26:02.426Z,27.72
2018-05-31T09:27:02.451Z,27.78
2018-05-31T09:28:02.477Z,27.86
2018-05-31T09:29:02.506Z,27.93
2018-05-31T09:30:02.536Z,28.02
2018-05-31T09:31:02.570Z,28.05
2018-05-31T09:32:02.601Z,28.02
2018-05-31T09:33:02.636Z,28.01
2018-05-31T09:34:02.658Z,28.01
2018-05-31T09:35:02.756Z,28.01
2018-05-31T09:36:02.718Z,27.99
2018-05-31T09:37:02.757Z,28.05
2018-05-31T09:38:02.782Z,28.02
2018-05-31T09:39:02.812Z,27.99
2018-05-31T09:40:02.844Z,28.02
2018-05-31T09:41:02.883Z,28.06
2018-05-31T09:42:02.906Z,28.06
2018-05-31T09:43:02.937Z,28.17
2018-05-31T09:44:02.972Z,28.23
2018-05-31T09:45:02.996Z,28.23
2018-05-31T09:46:03.026Z,28.35
2018-05-31T09:47:03.058Z,28.35
2018-05-31T09:48:03.090Z,28.36
2018-05-31T09:49:03.120Z,28.40
2018-05-31T09:50:03.154Z,28.36
2018-05-31T09:51:03.180Z,28.38
2018-05-31T09:52:03.216Z,28.35
2018-05-31T09:53:03.250Z,28.38
2018-05-31T09:54:03.278Z,28.33
2018-05-31T09:55:03.305Z,28.40
2018-05-31T09:56:03.340Z,28.33
2018-05-31T09:57:03.362Z,28.33
2018-05-31T09:58:03.397Z,28.38
2018-05-31T09:59:03.428Z,28.40
2018-05-31T10:00:03.457Z,28.36
2018-05-31T10:01:03.485Z,28.50
2018-05-31T10:02:03.525Z,28.51
2018-05-31T10:03:03.552Z,28.62
2018-05-31T10:04:03.582Z,28.74
2018-05-31T10:05:03.610Z,28.85
2018-05-31T10:06:03.651Z,28.83
2018-05-31T10:07:03.672Z,28.98
2018-05-31T10:08:03.707Z,29.00
2018-05-31T10:09:03.735Z,29.08
2018-05-31T10:10:03.767Z,29.11
2018-05-31T10:11:03.800Z,29.15
2018-05-31T10:12:03.828Z,29.20
2018-05-31T10:13:03.863Z,29.20
2018-05-31T10:14:03.890Z,29.30
2018-05-31T10:15:03.921Z,29.37
2018-05-31T10:16:03.996Z,29.45
2018-05-31T10:17:04.030Z,29.44
2018-05-31T10:18:04.015Z,29.37
2018-05-31T10:19:04.052Z,29.37
2018-05-31T10:20:04.078Z,29.25
2018-05-31T10:21:04.103Z,29.21
2018-05-31T10:22:04.135Z,29.32
2018-05-31T10:23:04.165Z,29.39
2018-05-31T10:24:04.200Z,29.47
2018-05-31T10:25:04.233Z,29.58
2018-05-31T10:26:04.261Z,29.60
2018-05-31T10:27:04.290Z,29.62
2018-05-31T10:28:04.325Z,29.73
2018-05-31T10:29:04.352Z,29.64
2018-05-31T10:30:04.422Z,29.79
2018-05-31T10:31:04.413Z,29.86
2018-05-31T10:32:04.444Z,29.85
2018-05-31T10:33:04.478Z,29.81
2018-05-31T10:34:04.511Z,29.99
2018-05-31T10:35:04.540Z,29.97
2018-05-31T10:36:04.569Z,30.01
2018-05-31T10:37:04.602Z,30.11
2018-05-31T10:38:04.638Z,30.10
2018-05-31T10:39:04.664Z,30.15
2018-05-31T10:40:04.696Z,30.18
2018-05-31T10:41:04.727Z,30.21
2018-05-31T10:42:04.758Z,30.36
2018-05-31T10:43:04.790Z,30.45
2018-05-31T10:44:04.820Z,30.36
2018-05-31T10:45:04.852Z,30.37
2018-05-31T10:46:04.884Z,30.42
2018-05-31T10:47:04.917Z,30.34
2018-05-31T10:48:04.946Z,30.48
2018-05-31T10:49:04.984Z,30.49
2018-05-31T10:50:05.010Z,30.59
2018-05-31T10:51:05.043Z,30.67
2018-05-31T10:52:05.076Z,30.76
2018-05-31T10:53:05.104Z,30.79
2018-05-31T10:54:05.138Z,30.86
2018-05-31T10:55:05.169Z,30.73
2018-05-31T10:56:05.203Z,30.78
2018-05-31T10:57:05.228Z,31.07
2018-05-31T10:58:05.260Z,31.18
2018-05-31T10:59:05.295Z,31.31
2018-05-31T11:00:05.332Z,31.37
2018-05-31T11:01:05.353Z,31.69
2018-05-31T11:02:05.388Z,31.87
2018-05-31T11:03:05.423Z,32.05
2018-05-31T11:04:05.447Z,32.32
2018-05-31T11:05:05.487Z,32.72
2018-05-31T11:06:05.512Z,33.03
2018-05-31T11:07:05.562Z,32.91
2018-05-31T11:08:05.585Z,32.65
2018-05-31T11:09:05.627Z,32.36
2018-05-31T11:10:05.648Z,33.20
2018-05-31T11:11:05.684Z,33.70
2018-05-31T11:12:05.713Z,35.21
2018-05-31T11:13:05.756Z,36.22
2018-05-31T11:14:05.786Z,36.94
2018-05-31T11:15:05.814Z,37.25
2018-05-31T11:16:05.848Z,38.00
2018-05-31T11:17:05.890Z,38.78
2018-05-31T11:18:05.922Z,39.01
2018-05-31T11:19:05.958Z,39.27
2018-05-31T11:20:05.989Z,39.09
2018-05-31T11:21:06.027Z,37.95
2018-05-31T11:22:06.066Z,38.97
2018-05-31T11:23:06.097Z,39.78
2018-05-31T11:24:06.134Z,40.44
2018-05-31T11:25:06.177Z,40.76
2018-05-31T11:26:06.211Z,40.76
2018-05-31T11:27:06.243Z,41.41
2018-05-31T11:28:06.278Z,41.12
2018-05-31T11:29:06.318Z,40.33
2018-05-31T11:30:06.359Z,40.33
2018-05-31T11:31:06.396Z,40.57
2018-05-31T11:32:06.429Z,40.79
2018-05-31T11:33:06.468Z,40.98
2018-05-31T11:34:06.509Z,41.29
2018-05-31T11:35:06.550Z,41.74
2018-05-31T11:36:06.582Z,42.08
2018-05-31T11:37:06.623Z,41.38
2018-05-31T11:38:06.660Z,41.44
2018-05-31T11:39:06.693Z,41.65
2018-05-31T11:40:06.739Z,42.01
2018-05-31T11:41:06.771Z,41.21
2018-05-31T11:42:06.814Z,40.78
2018-05-31T11:43:06.850Z,41.02
2018-05-31T11:44:06.892Z,39.29
2018-05-31T11:45:06.927Z,39.22
2018-05-31T11:46:06.963Z,39.73
2018-05-31T11:47:07.008Z,38.74
2018-05-31T11:48:07.044Z,37.49
2018-05-31T11:49:07.083Z,36.91
2018-05-31T11:50:07.132Z,36.12
2018-05-31T11:51:07.160Z,35.73
2018-05-31T11:52:07.194Z,35.29
2018-05-31T11:53:07.234Z,35.09
2018-05-31T11:54:07.272Z,34.83
2018-05-31T11:55:07.317Z,35.24
2018-05-31T11:56:07.340Z,37.23
2018-05-31T11:57:07.382Z,38.43
2018-05-31T11:58:07.422Z,38.87
2018-05-31T11:59:07.464Z,39.41
2018-05-31T12:00:07.495Z,39.90
2018-05-31T12:01:07.531Z,40.46
2018-05-31T12:02:07.566Z,40.29
2018-05-31T12:03:07.606Z,40.83
2018-05-31T12:04:07.647Z,41.67
2018-05-31T12:05:07.684Z,42.41
2018-05-31T12:06:07.731Z,42.11
2018-05-31T12:07:07.759Z,41.05
2018-05-31T12:08:07.808Z,41.50
2018-05-31T12:09:07.840Z,39.76
2018-05-31T12:10:07.876Z,38.21
2018-05-31T12:11:07.909Z,36.59
2018-05-31T12:12:07.979Z,36.06
2018-05-31T12:13:07.990Z,36.84
2018-05-31T12:14:08.033Z,38.58
2018-05-31T12:15:08.069Z,40.07
2018-05-31T12:16:08.106Z,41.05
2018-05-31T12:17:08.145Z,42.09
2018-05-31T12:18:08.190Z,43.17
2018-05-31T12:19:08.218Z,43.55
2018-05-31T12:20:08.260Z,44.16
2018-05-31T12:21:08.296Z,44.37
2018-05-31T12:22:08.334Z,43.16
2018-05-31T12:23:08.380Z,41.50
2018-05-31T12:24:08.414Z,41.04
2018-05-31T12:25:08.459Z,41.85
2018-05-31T12:26:08.495Z,40.16
2018-05-31T12:27:08.540Z,38.59
2018-05-31T12:28:08.570Z,39.41
2018-05-31T12:29:08.613Z,40.56
2018-05-31T12:30:08.656Z,41.70
2018-05-31T12:31:08.699Z,42.29
2018-05-31T12:32:08.757Z,42.87
2018-05-31T12:33:08.777Z,43.33
2018-05-31T12:34:08.807Z,41.23
2018-05-31T12:35:08.853Z,39.20
2018-05-31T12:36:08.897Z,37.56
2018-05-31T12:37:08.934Z,36.91
2018-05-31T12:38:08.967Z,36.33
2018-05-31T12:39:09.009Z,36.00
2018-05-31T12:40:09.060Z,37.31
2018-05-31T12:41:09.087Z,38.93
2018-05-31T12:42:09.118Z,40.19
2018-05-31T12:43:09.162Z,41.28
2018-05-31T12:44:09.199Z,42.42
2018-05-31T12:45:09.234Z,42.67
2018-05-31T12:46:09.278Z,43.03
2018-05-31T12:47:09.317Z,43.60
2018-05-31T12:48:09.362Z,42.08
2018-05-31T12:49:09.394Z,40.76
2018-05-31T12:50:09.428Z,39.57
2018-05-31T12:51:09.470Z,38.59
2018-05-31T12:52:09.507Z,37.62
2018-05-31T12:53:09.555Z,36.86